sensor_id;sensor_type;location;lat;lon;timestamp;temperature;humidity
16178;DHT22;8195;51.220;9.746;2023-02-11T00:00:05;2.10;97.20
16178;DHT22;8195;51.220;9.746;2023-02-11T00:10:06;2.00;97.20
16178;DHT22;8195;51.220;9.746;2023-02-11T00:20:07;1.90;97.20
16178;DHT22;8195;51.220;9.746;2023-02-11T00:30:09;1.80;97.20
16178;DHT22;8195;51.220;9.746;2023-02-11T00:40:10;1.80;97.20
16178;DHT22;8195;51.220;9.746;2023-02-11T00:50:11;1.80;97.20
16178;DHT22;8195;51.220;9.746;2023-02-11T01:00:12;1.80;97.20
16178;DHT22;8195;51.220;9.746;2023-02-11T01:10:13;1.90;97.20
16178;DHT22;8195;51.220;9.746;2023-02-11T01:20:18;2.00;97.20
16178;DHT22;8195;51.220;9.746;2023-02-11T01:30:19;2.00;97.20
16178;DHT22;8195;51.220;9.746;2023-02-11T01:40:20;2.10;97.20
16178;DHT22;8195;51.220;9.746;2023-02-11T01:50:20;2.20;97.20
16178;DHT22;8195;51.220;9.746;2023-02-11T02:00:34;2.30;97.20
16178;DHT22;8195;51.220;9.746;2023-02-11T02:10:37;2.30;97.20
16178;DHT22;8195;51.220;9.746;2023-02-11T02:20:58;2.20;97.20
16178;DHT22;8195;51.220;9.746;2023-02-11T02:41:15;2.30;97.20
16178;DHT22;8195;51.220;9.746;2023-02-11T03:11:54;2.40;97.20
16178;DHT22;8195;51.220;9.746;2023-02-11T03:21:55;2.40;97.20
16178;DHT22;8195;51.220;9.746;2023-02-11T03:32:12;2.40;97.20
16178;DHT22;8195;51.220;9.746;2023-02-11T03:42:16;2.50;97.20
16178;DHT22;8195;51.220;9.746;2023-02-11T03:52:20;2.60;97.20
16178;DHT22;8195;51.220;9.746;2023-02-11T04:02:33;2.60;97.20
16178;DHT22;8195;51.220;9.746;2023-02-11T04:12:34;2.50;97.20
16178;DHT22;8195;51.220;9.746;2023-02-11T04:22:35;2.60;97.20
16178;DHT22;8195;51.220;9.746;2023-02-11T04:32:35;2.70;97.20
16178;DHT22;8195;51.220;9.746;2023-02-11T04:42:36;2.70;97.20
16178;DHT22;8195;51.220;9.746;2023-02-11T04:52:36;2.60;97.20
16178;DHT22;8195;51.220;9.746;2023-02-11T05:02:37;2.60;97.20
16178;DHT22;8195;51.220;9.746;2023-02-11T05:12:38;2.70;97.20
16178;DHT22;8195;51.220;9.746;2023-02-11T05:22:38;2.60;97.20
16178;DHT22;8195;51.220;9.746;2023-02-11T05:32:39;2.70;97.20
16178;DHT22;8195;51.220;9.746;2023-02-11T05:42:39;2.60;97.20
16178;DHT22;8195;51.220;9.746;2023-02-11T05:52:40;2.70;97.20
16178;DHT22;8195;51.220;9.746;2023-02-11T06:02:40;2.70;97.20
16178;DHT22;8195;51.220;9.746;2023-02-11T06:12:41;2.70;97.20
16178;DHT22;8195;51.220;9.746;2023-02-11T06:22:42;2.80;97.20
16178;DHT22;8195;51.220;9.746;2023-02-11T06:32:42;2.70;97.20
16178;DHT22;8195;51.220;9.746;2023-02-11T06:42:43;2.80;97.20
16178;DHT22;8195;51.220;9.746;2023-02-11T06:52:44;2.70;97.20
16178;DHT22;8195;51.220;9.746;2023-02-11T07:02:44;2.70;97.20
16178;DHT22;8195;51.220;9.746;2023-02-11T07:12:45;2.70;97.20
16178;DHT22;8195;51.220;9.746;2023-02-11T07:22:45;2.70;97.20
16178;DHT22;8195;51.220;9.746;2023-02-11T07:32:46;2.80;97.20
16178;DHT22;8195;51.220;9.746;2023-02-11T07:42:46;2.80;97.20
16178;DHT22;8195;51.220;9.746;2023-02-11T07:52:47;2.70;97.20
16178;DHT22;8195;51.220;9.746;2023-02-11T08:02:47;2.90;97.20
16178;DHT22;8195;51.220;9.746;2023-02-11T08:12:48;2.90;97.20
16178;DHT22;8195;51.220;9.746;2023-02-11T08:22:49;2.90;97.20
16178;DHT22;8195;51.220;9.746;2023-02-11T08:32:49;2.90;97.20
16178;DHT22;8195;51.220;9.746;2023-02-11T08:42:50;3.00;97.20
16178;DHT22;8195;51.220;9.746;2023-02-11T08:52:50;3.00;97.20
16178;DHT22;8195;51.220;9.746;2023-02-11T09:02:51;3.10;97.20
16178;DHT22;8195;51.220;9.746;2023-02-11T09:12:51;3.10;97.20
16178;DHT22;8195;51.220;9.746;2023-02-11T09:22:53;3.20;97.20
16178;DHT22;8195;51.220;9.746;2023-02-11T09:32:54;3.30;97.20
16178;DHT22;8195;51.220;9.746;2023-02-11T09:43:26;3.40;97.20
16178;DHT22;8195;51.220;9.746;2023-02-11T09:53:34;3.50;97.20
16178;DHT22;8195;51.220;9.746;2023-02-11T10:14:00;3.80;97.20
16178;DHT22;8195;51.220;9.746;2023-02-11T10:24:10;4.00;97.20
16178;DHT22;8195;51.220;9.746;2023-02-11T10:34:13;4.10;97.20
16178;DHT22;8195;51.220;9.746;2023-02-11T10:44:34;4.30;97.20
16178;DHT22;8195;51.220;9.746;2023-02-11T10:54:36;4.40;97.20
16178;DHT22;8195;51.220;9.746;2023-02-11T11:04:42;4.40;97.20
16178;DHT22;8195;51.220;9.746;2023-02-11T11:15:00;4.50;97.20
16178;DHT22;8195;51.220;9.746;2023-02-11T11:25:01;4.60;97.20
16178;DHT22;8195;51.220;9.746;2023-02-11T11:35:06;4.70;97.20
16178;DHT22;8195;51.220;9.746;2023-02-11T11:55:24;4.70;97.20
16178;DHT22;8195;51.220;9.746;2023-02-11T12:05:51;4.70;97.20
16178;DHT22;8195;51.220;9.746;2023-02-11T12:16:10;5.50;97.20
16178;DHT22;8195;51.220;9.746;2023-02-11T12:26:21;4.70;97.20
16178;DHT22;8195;51.220;9.746;2023-02-11T12:46:47;4.80;97.20
16178;DHT22;8195;51.220;9.746;2023-02-11T12:57:37;4.70;97.20
16178;DHT22;8195;51.220;9.746;2023-02-11T13:07:34;4.80;97.20
16178;DHT22;8195;51.220;9.746;2023-02-11T13:17:42;4.90;97.20
16178;DHT22;8195;51.220;9.746;2023-02-11T13:38:28;5.00;97.20
16178;DHT22;8195;51.220;9.746;2023-02-11T13:48:34;4.90;97.20
16178;DHT22;8195;51.220;9.746;2023-02-11T13:58:45;5.00;97.20
16178;DHT22;8195;51.220;9.746;2023-02-11T14:40:03;5.20;97.20
16178;DHT22;8195;51.220;9.746;2023-02-11T14:50:06;5.20;97.20
16178;DHT22;8195;51.220;9.746;2023-02-11T15:00:20;5.20;97.20
16178;DHT22;8195;51.220;9.746;2023-02-11T15:10:31;5.20;97.20
16178;DHT22;8195;51.220;9.746;2023-02-11T15:20:34;5.20;97.20
16178;DHT22;8195;51.220;9.746;2023-02-11T15:30:34;5.10;97.20
16178;DHT22;8195;51.220;9.746;2023-02-11T15:40:36;5.10;97.20
16178;DHT22;8195;51.220;9.746;2023-02-11T15:50:37;5.20;97.20
16178;DHT22;8195;51.220;9.746;2023-02-11T16:00:45;5.20;97.20
16178;DHT22;8195;51.220;9.746;2023-02-11T16:11:01;5.20;97.20
16178;DHT22;8195;51.220;9.746;2023-02-11T16:21:04;5.30;97.20
16178;DHT22;8195;51.220;9.746;2023-02-11T16:31:05;5.40;97.20
16178;DHT22;8195;51.220;9.746;2023-02-11T16:41:06;5.40;97.20
16178;DHT22;8195;51.220;9.746;2023-02-11T16:51:09;5.40;97.20
16178;DHT22;8195;51.220;9.746;2023-02-11T17:01:11;5.50;97.20
16178;DHT22;8195;51.220;9.746;2023-02-11T17:11:11;5.50;97.20
16178;DHT22;8195;51.220;9.746;2023-02-11T17:21:12;5.40;97.20
16178;DHT22;8195;51.220;9.746;2023-02-11T17:31:13;5.50;97.20
16178;DHT22;8195;51.220;9.746;2023-02-11T17:41:13;5.50;97.20
16178;DHT22;8195;51.220;9.746;2023-02-11T17:51:35;5.60;97.20
16178;DHT22;8195;51.220;9.746;2023-02-11T18:01:37;5.60;97.20
16178;DHT22;8195;51.220;9.746;2023-02-11T18:11:38;5.60;97.20
16178;DHT22;8195;51.220;9.746;2023-02-11T18:21:39;5.60;97.20
16178;DHT22;8195;51.220;9.746;2023-02-11T18:31:39;5.60;97.20
16178;DHT22;8195;51.220;9.746;2023-02-11T18:41:40;5.60;97.20
16178;DHT22;8195;51.220;9.746;2023-02-11T18:51:41;5.70;97.20
16178;DHT22;8195;51.220;9.746;2023-02-11T19:01:42;5.70;97.20
16178;DHT22;8195;51.220;9.746;2023-02-11T19:11:42;5.70;97.20
16178;DHT22;8195;51.220;9.746;2023-02-11T19:21:44;5.70;97.20
16178;DHT22;8195;51.220;9.746;2023-02-11T19:31:45;5.80;97.20
16178;DHT22;8195;51.220;9.746;2023-02-11T19:41:46;5.80;97.20
16178;DHT22;8195;51.220;9.746;2023-02-11T19:51:46;5.70;97.20
16178;DHT22;8195;51.220;9.746;2023-02-11T20:01:47;5.80;97.20
16178;DHT22;8195;51.220;9.746;2023-02-11T20:11:47;5.80;97.20
16178;DHT22;8195;51.220;9.746;2023-02-11T20:21:51;5.70;97.20
16178;DHT22;8195;51.220;9.746;2023-02-11T20:31:52;5.80;97.20
16178;DHT22;8195;51.220;9.746;2023-02-11T20:41:53;5.70;97.20
16178;DHT22;8195;51.220;9.746;2023-02-11T20:51:54;5.80;97.20
16178;DHT22;8195;51.220;9.746;2023-02-11T21:01:55;5.80;97.20
16178;DHT22;8195;51.220;9.746;2023-02-11T21:11:56;5.80;97.20
16178;DHT22;8195;51.220;9.746;2023-02-11T21:21:57;5.80;97.20
16178;DHT22;8195;51.220;9.746;2023-02-11T21:31:58;5.80;97.20
16178;DHT22;8195;51.220;9.746;2023-02-11T21:41:58;5.70;97.20
16178;DHT22;8195;51.220;9.746;2023-02-11T21:51:59;5.60;97.20
16178;DHT22;8195;51.220;9.746;2023-02-11T22:01:59;5.60;97.20
16178;DHT22;8195;51.220;9.746;2023-02-11T22:12:00;5.60;97.20
16178;DHT22;8195;51.220;9.746;2023-02-11T22:22:00;5.60;97.20
16178;DHT22;8195;51.220;9.746;2023-02-11T22:32:01;5.50;97.20
16178;DHT22;8195;51.220;9.746;2023-02-11T22:42:01;5.60;97.20
16178;DHT22;8195;51.220;9.746;2023-02-11T22:52:02;5.50;97.20
16178;DHT22;8195;51.220;9.746;2023-02-11T23:02:03;5.50;97.20
16178;DHT22;8195;51.220;9.746;2023-02-11T23:12:04;5.50;97.20
16178;DHT22;8195;51.220;9.746;2023-02-11T23:22:04;5.50;97.20
16178;DHT22;8195;51.220;9.746;2023-02-11T23:32:05;5.50;97.20
16178;DHT22;8195;51.220;9.746;2023-02-11T23:42:05;5.50;97.20
16178;DHT22;8195;51.220;9.746;2023-02-11T23:52:06;5.50;97.20
